x

Boston 16 Nm East Of Boston, Ma (44013) Wave Buoy

12:50 - Thu 5th May 2016 All times are EDT. -4 hours from GMT.

  • Sig Wave height 7.5ft
  • Swell Direction
  • Peak Period 8s
  • Average Period 6s
  • Wind
    27mph, 31mph gusts
  • Sea Temp 47°f
  • Aire Temp 45°f
  • Sea Pressure 1006.5mb
  • Boston 16 Nm East Of Boston, Ma
  • Boston 16 Nm East Of Boston, Ma

More Historic Weather Station data

Upgrade to MSW Pro to gain access to the past 30 days of data for over 8000 Wavebouys and Weather Stations around the globe.

Join Pro

Comparision Forecast

View Surf forecast
   
jue 05/05 12:50 7.5ft 8s 6s 27 31 mph 1006.5mb 47f 45f
11:50 7ft 7s 6s 27 31 mph 1006.9mb 47f 44f
10:50 7ft 7s 5s 25 29 mph 1007.3mb 47f 45f
9:50 7.5ft 7s 5s 27 31 mph 1006.7mb 47f 45f
8:50 7.5ft 7s 6s 27 31 mph 1006.7mb 47f 45f
7:50 7.5ft 7s 6s 27 31 mph 1006.6mb 47f 45f
6:50 7.5ft 7s 6s 27 31 mph 1006mb 47f 45f
5:50 7ft 7s 6s 27 31 mph 1005.8mb 47f 45f
4:50 6.5ft 7s 5s 22 27 mph 1006.1mb 47f 45f
3:50 6.5ft 7s 5s 22 27 mph 1006.1mb 47f 45f
2:50 6ft 7s 5s 25 29 mph 1006.1mb 47f 44f
1:50 6ft 7s 5s 22 27 mph 1006.9mb 47f 45f
12:50 6ft 7s 5s 22 27 mph 1007.3mb 47f 45f
mié 05/04 11:50 6ft 6s 5s 22 27 mph 1007.5mb 47f 45f
10:50 5ft 6s 5s 22 27 mph 1007.6mb 47f 45f
9:50 5ft 6s 5s 20 25 mph 1008.9mb 47f 45f
8:50 5ft 6s 5s 22 27 mph 1007.8mb 47f 45f
7:50 4.5ft 5s 5s 20 25 mph 1008.7mb 47f 45f
6:50 4.5ft 5s 5s 22 25 mph 1008.5mb 47f 44f
5:50 4ft 5s 4s 20 25 mph 1009mb 47f 44f
4:50 3.5ft 9s 4s 20 25 mph 1009.1mb 47f 44f
3:50 3ft 9s 4s 18 22 mph 1009.6mb 47f 45f
2:50 2.5ft 4s 4s 18 20 mph 1010mb 47f 46f
1:50 2.5ft 10s 4s 13 16 mph 1011.2mb 47f 46f
12:50 2ft 9s 4s 16 18 mph 1011mb 47f 46f
11:50 2ft 9s 4s 13 16 mph 1011.6mb 47f 47f
10:50 2ft 7s 4s 13 16 mph 1012mb 47f 47f
9:50 2ft 9s 5s 13 16 mph 1010.7mb 47f 47f
8:50 2ft 8s 5s 9 11 mph 1011.4mb 47f 47f
7:50 2.5ft 8s 6s 9 11 mph 1011.2mb 47f 46f
6:50 2.5ft 8s 6s 11 13 mph 1010.8mb 47f 46f
5:50 2.5ft 9s 6s 11 13 mph 1010.7mb 47f 46f
4:50 2.5ft 9s 6s 11
mph
1010.4mb 47f 46f
3:50 2ft 9s 6s 7 9 mph 1010.6mb 47f 46f
2:50 2ft 9s 6s 7 9 mph 1010.3mb 47f 46f
1:50 2ft 9s 7s 7 9 mph 1010.4mb 47f 46f
12:50 2ft 9s 6s 4 7 mph 1010.7mb 47f 46f
mar 05/03 11:50 2ft 9s 6s 4
mph
1010.9mb 47f 46f
10:50 2ft 8s 6s 7
mph
1011.1mb 47f 46f
9:50 2ft 8s 6s 7 9 mph 1011mb 47f 46f
8:50 2.5ft 10s 6s 7
mph
1010.9mb 47f 46f
7:50 2.5ft 9s 6s 7
mph
1010.4mb 47f 46f
6:50 2.5ft 8s 6s 7
mph
1010.3mb 47f 46f
5:50 2.5ft 8s 6s 7
mph
1010.3mb 47f 46f
4:50 2.5ft 6s 6s 9 11 mph 1010.4mb 47f 46f
3:50 2.5ft 9s 6s 9
mph
1011mb 47f 47f
2:50 2.5ft 6s 6s 7
mph
1011.1mb 48f 46f
1:50 2.5ft 9s 6s 7 9 mph 1011.2mb 48f 46f
12:50 2.5ft 8s 6s 4
mph
1011.6mb 48f 45f
11:50 2.5ft 8s 6s 2
mph
1012.6mb 47f 46f
10:50 2.5ft 7s 6s 4
mph
1012.5mb 47f 45f
8:50 2.5ft 7s 6s 4 7 mph 1012.7mb 47f 46f
7:50 3ft 8s 6s 4
mph
1012.7mb 47f 46f
6:50 3ft 8s 6s 4 7 mph 1012.9mb 47f 46f
5:50 3ft 6s 6s 2
mph
1013mb 47f 46f
4:50 3.5ft 6s 6s 2
mph
1013mb 47f 46f
3:50 3.5ft 8s 5s 11
mph
1012.3mb 47f 46f
2:50 3ft 8s 6s 7
mph
1012.9mb 47f 46f
1:50 3.5ft 8s 6s 9
mph
1013.3mb 47f 47f
12:50 3ft 8s 5s 7
mph
1013.1mb 47f 46f
lun 05/02 11:50 3.5ft 9s 5s 9 11 mph 1012.9mb 47f 46f
10:50 3.5ft 9s 5s 9 13 mph 1013.3mb 47f 46f
9:50 4ft 8s 5s 11 13 mph 1013.1mb 47f 46f
8:50 3.5ft 7s 5s 18 20 mph 1012.5mb 47f 46f
7:50 4ft 8s 5s 20 25 mph 1011.7mb 47f 46f
6:50 4ft 8s 6s 9 11 mph 1011.1mb 47f 47f
5:50 3.5ft 7s 6s 11 13 mph 1010.5mb 47f 47f
4:50 3.5ft 7s 6s 2
mph
1010.4mb 47f 47f
3:50 3.5ft 9s 5s 7
mph
1010.8mb 47f 47f
2:50 3ft 8s 6s 9 11 mph 1011.6mb 47f 47f
1:50 2.5ft 8s 6s 13 16 mph 1012.3mb 47f 47f
12:50 2.5ft 8s 6s 4 7 mph 1014.1mb 47f 47f
11:50 2ft 8s 5s 9 11 mph 1014mb 47f 47f
10:50 2.5ft 9s 5s 9
mph
1015.1mb 47f 47f
9:50 2.5ft 9s 5s 9
mph
1015.7mb 47f 47f
8:50 2.5ft 8s 5s 11 13 mph 1016.1mb 47f 46f
7:50 3ft 9s 5s 13 16 mph 1016.5mb 47f 46f
6:50 3ft 8s 5s 11 13 mph 1017mb 47f 46f
5:50 3ft 9s 5s 13 16 mph 1016.4mb 47f 46f
4:50 3.5ft 8s 6s 13 16 mph 1016.6mb 47f 46f
3:50 3.5ft 10s 6s 11
mph
1017.4mb 47f 46f
2:50 2.5ft 11s 6s 11 13 mph 1017.6mb 47f 46f
1:50 3ft 10s 6s 13 16 mph 1018mb 47f 46f
12:50 3.5ft 10s 7s 9 11 mph 1019.1mb 47f 46f
dom 05/01 11:50 3.5ft 10s 7s 9 11 mph 1019.5mb 47f 45f
10:50 3ft 10s 6s 7
mph
1020.2mb 47f 45f
9:50 3ft 10s 7s  -  2 mph 1020.9mb 47f 44f
8:50 3.5ft 10s 6s 7
mph
1021.2mb 47f 45f
7:50 3.5ft 9s 6s 9 13 mph 1021.6mb 47f 46f
6:50 2.5ft 10s 6s 11 13 mph 1021.5mb 47f 47f